sensor_id;sensor_type;location;lat;lon;timestamp;temperature;humidity
6662;DHT22;3367;48.714;8.994;2023-04-03T00:01:24;3.00;1.00
6662;DHT22;3367;48.714;8.994;2023-04-03T00:03:50;3.00;1.00
6662;DHT22;3367;48.714;8.994;2023-04-03T00:06:17;3.00;1.00
6662;DHT22;3367;48.714;8.994;2023-04-03T00:08:44;3.00;1.00
6662;DHT22;3367;48.714;8.994;2023-04-03T00:11:12;3.00;1.00
6662;DHT22;3367;48.714;8.994;2023-04-03T00:13:40;3.00;1.00
6662;DHT22;3367;48.714;8.994;2023-04-03T00:16:08;3.00;1.00
6662;DHT22;3367;48.714;8.994;2023-04-03T00:18:36;2.90;1.00
6662;DHT22;3367;48.714;8.994;2023-04-03T00:21:04;2.90;1.00
6662;DHT22;3367;48.714;8.994;2023-04-03T00:23:31;2.90;1.00
6662;DHT22;3367;48.714;8.994;2023-04-03T00:25:58;2.90;1.00
6662;DHT22;3367;48.714;8.994;2023-04-03T00:28:26;2.90;1.00
6662;DHT22;3367;48.714;8.994;2023-04-03T00:30:53;2.90;1.00
6662;DHT22;3367;48.714;8.994;2023-04-03T00:33:20;2.90;1.00
6662;DHT22;3367;48.714;8.994;2023-04-03T00:35:47;2.90;2.70
6662;DHT22;3367;48.714;8.994;2023-04-03T00:38:15;2.80;1.00
6662;DHT22;3367;48.714;8.994;2023-04-03T00:40:44;2.80;1.00
6662;DHT22;3367;48.714;8.994;2023-04-03T00:43:13;2.80;1.00
6662;DHT22;3367;48.714;8.994;2023-04-03T00:45:43;2.80;1.00
6662;DHT22;3367;48.714;8.994;2023-04-03T00:48:13;2.80;1.00
6662;DHT22;3367;48.714;8.994;2023-04-03T00:50:42;2.80;1.00
6662;DHT22;3367;48.714;8.994;2023-04-03T00:53:13;2.70;1.00
6662;DHT22;3367;48.714;8.994;2023-04-03T00:55:41;2.70;1.00
6662;DHT22;3367;48.714;8.994;2023-04-03T00:58:09;2.70;1.00
6662;DHT22;3367;48.714;8.994;2023-04-03T01:00:37;2.70;1.00
6662;DHT22;3367;48.714;8.994;2023-04-03T01:03:08;2.60;28.60
6662;DHT22;3367;48.714;8.994;2023-04-03T01:05:35;2.60;1.00
6662;DHT22;3367;48.714;8.994;2023-04-03T01:08:02;2.60;5.70
6662;DHT22;3367;48.714;8.994;2023-04-03T01:10:28;2.60;19.50
6662;DHT22;3367;48.714;8.994;2023-04-03T01:12:55;2.60;38.60
6662;DHT22;3367;48.714;8.994;2023-04-03T01:15:24;2.60;80.20
6662;DHT22;3367;48.714;8.994;2023-04-03T01:17:52;2.60;84.10
6662;DHT22;3367;48.714;8.994;2023-04-03T01:23:45;2.60;48.00
6662;DHT22;3367;48.714;8.994;2023-04-03T01:26:15;2.60;25.40
6662;DHT22;3367;48.714;8.994;2023-04-03T01:28:42;2.60;99.90
6662;DHT22;3367;48.714;8.994;2023-04-03T01:31:18;2.60;56.50
6662;DHT22;3367;48.714;8.994;2023-04-03T01:33:48;2.50;81.40
6662;DHT22;3367;48.714;8.994;2023-04-03T01:36:17;2.50;99.90
6662;DHT22;3367;48.714;8.994;2023-04-03T01:38:44;2.50;99.90
6662;DHT22;3367;48.714;8.994;2023-04-03T01:41:11;2.50;83.70
6662;DHT22;3367;48.714;8.994;2023-04-03T01:43:38;2.50;99.90
6662;DHT22;3367;48.714;8.994;2023-04-03T01:46:06;2.50;99.90
6662;DHT22;3367;48.714;8.994;2023-04-03T01:48:33;2.50;99.90
6662;DHT22;3367;48.714;8.994;2023-04-03T01:51:01;2.50;99.90
6662;DHT22;3367;48.714;8.994;2023-04-03T01:53:28;2.50;91.60
6662;DHT22;3367;48.714;8.994;2023-04-03T01:55:54;2.40;86.30
6662;DHT22;3367;48.714;8.994;2023-04-03T01:58:21;2.40;99.90
6662;DHT22;3367;48.714;8.994;2023-04-03T02:00:48;2.40;99.90
6662;DHT22;3367;48.714;8.994;2023-04-03T02:03:15;2.40;99.90
6662;DHT22;3367;48.714;8.994;2023-04-03T02:05:41;2.30;99.90
6662;DHT22;3367;48.714;8.994;2023-04-03T02:08:10;2.30;99.90
6662;DHT22;3367;48.714;8.994;2023-04-03T02:10:36;2.30;99.90
6662;DHT22;3367;48.714;8.994;2023-04-03T02:13:03;2.30;99.90
6662;DHT22;3367;48.714;8.994;2023-04-03T02:15:30;2.30;99.90
6662;DHT22;3367;48.714;8.994;2023-04-03T02:17:57;2.30;99.90
6662;DHT22;3367;48.714;8.994;2023-04-03T02:20:23;2.30;99.90
6662;DHT22;3367;48.714;8.994;2023-04-03T02:22:50;2.30;99.90
6662;DHT22;3367;48.714;8.994;2023-04-03T02:25:18;2.30;99.90
6662;DHT22;3367;48.714;8.994;2023-04-03T02:27:45;2.30;99.90
6662;DHT22;3367;48.714;8.994;2023-04-03T02:30:12;2.40;99.90
6662;DHT22;3367;48.714;8.994;2023-04-03T02:32:40;2.40;99.90
6662;DHT22;3367;48.714;8.994;2023-04-03T02:35:08;2.40;99.90
6662;DHT22;3367;48.714;8.994;2023-04-03T02:37:35;2.40;99.90
6662;DHT22;3367;48.714;8.994;2023-04-03T02:40:02;2.40;99.90
6662;DHT22;3367;48.714;8.994;2023-04-03T02:42:30;2.40;55.50
6662;DHT22;3367;48.714;8.994;2023-04-03T02:44:57;2.40;73.40
6662;DHT22;3367;48.714;8.994;2023-04-03T02:47:25;2.40;84.50
6662;DHT22;3367;48.714;8.994;2023-04-03T02:49:52;2.40;77.80
6662;DHT22;3367;48.714;8.994;2023-04-03T02:52:19;2.40;25.30
6662;DHT22;3367;48.714;8.994;2023-04-03T02:54:46;2.40;1.00
6662;DHT22;3367;48.714;8.994;2023-04-03T02:57:13;2.40;1.00
6662;DHT22;3367;48.714;8.994;2023-04-03T02:59:41;2.40;1.00
6662;DHT22;3367;48.714;8.994;2023-04-03T03:02:08;2.40;1.00
6662;DHT22;3367;48.714;8.994;2023-04-03T03:04:35;2.40;1.00
6662;DHT22;3367;48.714;8.994;2023-04-03T03:07:02;2.40;1.00
6662;DHT22;3367;48.714;8.994;2023-04-03T03:09:29;2.40;1.00
6662;DHT22;3367;48.714;8.994;2023-04-03T03:11:56;2.40;1.00
6662;DHT22;3367;48.714;8.994;2023-04-03T03:14:23;2.40;1.00
6662;DHT22;3367;48.714;8.994;2023-04-03T03:16:51;2.40;1.00
6662;DHT22;3367;48.714;8.994;2023-04-03T03:19:18;2.40;1.00
6662;DHT22;3367;48.714;8.994;2023-04-03T03:21:45;2.40;1.00
6662;DHT22;3367;48.714;8.994;2023-04-03T03:24:12;2.40;1.00
6662;DHT22;3367;48.714;8.994;2023-04-03T03:26:38;2.40;1.00
6662;DHT22;3367;48.714;8.994;2023-04-03T03:29:05;2.30;1.00
6662;DHT22;3367;48.714;8.994;2023-04-03T03:31:32;2.30;1.00
6662;DHT22;3367;48.714;8.994;2023-04-03T03:34:00;2.30;1.00
6662;DHT22;3367;48.714;8.994;2023-04-03T03:36:27;2.40;1.00
6662;DHT22;3367;48.714;8.994;2023-04-03T03:38:54;2.40;1.00
6662;DHT22;3367;48.714;8.994;2023-04-03T03:41:21;2.40;1.00
6662;DHT22;3367;48.714;8.994;2023-04-03T03:43:48;2.40;1.00
6662;DHT22;3367;48.714;8.994;2023-04-03T03:46:15;2.40;1.00
6662;DHT22;3367;48.714;8.994;2023-04-03T03:48:42;2.40;1.00
6662;DHT22;3367;48.714;8.994;2023-04-03T03:51:10;2.40;1.00
6662;DHT22;3367;48.714;8.994;2023-04-03T03:53:37;2.40;1.00
6662;DHT22;3367;48.714;8.994;2023-04-03T03:56:04;2.40;1.00
6662;DHT22;3367;48.714;8.994;2023-04-03T03:58:31;2.40;1.00
6662;DHT22;3367;48.714;8.994;2023-04-03T04:01:01;2.40;1.00
6662;DHT22;3367;48.714;8.994;2023-04-03T04:03:28;2.40;1.00
6662;DHT22;3367;48.714;8.994;2023-04-03T04:05:54;2.40;1.00
6662;DHT22;3367;48.714;8.994;2023-04-03T04:08:23;2.40;1.00
6662;DHT22;3367;48.714;8.994;2023-04-03T04:10:50;2.40;1.00
6662;DHT22;3367;48.714;8.994;2023-04-03T04:13:17;2.40;1.00
6662;DHT22;3367;48.714;8.994;2023-04-03T04:15:44;2.40;1.00
6662;DHT22;3367;48.714;8.994;2023-04-03T04:18:11;2.40;1.00
6662;DHT22;3367;48.714;8.994;2023-04-03T04:20:38;2.40;1.00
6662;DHT22;3367;48.714;8.994;2023-04-03T04:23:05;2.40;1.00
6662;DHT22;3367;48.714;8.994;2023-04-03T04:25:33;2.40;1.00
6662;DHT22;3367;48.714;8.994;2023-04-03T04:28:00;2.40;1.00
6662;DHT22;3367;48.714;8.994;2023-04-03T04:30:27;2.40;1.00
6662;DHT22;3367;48.714;8.994;2023-04-03T04:32:53;2.50;1.00
6662;DHT22;3367;48.714;8.994;2023-04-03T04:35:20;2.50;1.00
6662;DHT22;3367;48.714;8.994;2023-04-03T04:37:47;2.40;1.00
6662;DHT22;3367;48.714;8.994;2023-04-03T04:40:14;2.40;1.00
6662;DHT22;3367;48.714;8.994;2023-04-03T04:42:42;2.40;1.00
6662;DHT22;3367;48.714;8.994;2023-04-03T04:45:10;2.40;1.00
6662;DHT22;3367;48.714;8.994;2023-04-03T04:47:37;2.40;1.00
6662;DHT22;3367;48.714;8.994;2023-04-03T04:50:04;2.40;1.00
6662;DHT22;3367;48.714;8.994;2023-04-03T04:52:32;2.40;1.00
6662;DHT22;3367;48.714;8.994;2023-04-03T04:54:59;2.40;1.00
6662;DHT22;3367;48.714;8.994;2023-04-03T04:57:26;2.40;1.00
6662;DHT22;3367;48.714;8.994;2023-04-03T04:59:54;2.40;1.00
6662;DHT22;3367;48.714;8.994;2023-04-03T05:02:21;2.50;1.00
6662;DHT22;3367;48.714;8.994;2023-04-03T05:04:48;2.60;1.00
6662;DHT22;3367;48.714;8.994;2023-04-03T05:07:17;2.50;1.00
6662;DHT22;3367;48.714;8.994;2023-04-03T05:09:44;2.50;1.00
6662;DHT22;3367;48.714;8.994;2023-04-03T05:12:11;2.50;1.00
6662;DHT22;3367;48.714;8.994;2023-04-03T05:14:37;2.50;1.00
6662;DHT22;3367;48.714;8.994;2023-04-03T05:17:06;2.60;1.00
6662;DHT22;3367;48.714;8.994;2023-04-03T05:19:32;2.60;99.90
6662;DHT22;3367;48.714;8.994;2023-04-03T05:21:59;2.50;99.90
6662;DHT22;3367;48.714;8.994;2023-04-03T05:24:26;2.50;1.00
6662;DHT22;3367;48.714;8.994;2023-04-03T05:26:52;2.60;99.90
6662;DHT22;3367;48.714;8.994;2023-04-03T05:29:19;2.60;1.00
6662;DHT22;3367;48.714;8.994;2023-04-03T05:31:48;2.60;1.00
6662;DHT22;3367;48.714;8.994;2023-04-03T05:34:16;2.70;1.00
6662;DHT22;3367;48.714;8.994;2023-04-03T05:36:43;2.70;1.00
6662;DHT22;3367;48.714;8.994;2023-04-03T05:39:10;2.70;1.00
6662;DHT22;3367;48.714;8.994;2023-04-03T05:41:37;2.80;1.00
6662;DHT22;3367;48.714;8.994;2023-04-03T05:44:03;2.80;1.00
6662;DHT22;3367;48.714;8.994;2023-04-03T05:46:30;2.90;1.00
6662;DHT22;3367;48.714;8.994;2023-04-03T05:48:57;2.90;1.00
6662;DHT22;3367;48.714;8.994;2023-04-03T05:51:29;3.00;1.00
6662;DHT22;3367;48.714;8.994;2023-04-03T05:54:00;3.00;1.00
6662;DHT22;3367;48.714;8.994;2023-04-03T05:56:29;3.10;1.00
6662;DHT22;3367;48.714;8.994;2023-04-03T05:58:56;3.20;1.00
6662;DHT22;3367;48.714;8.994;2023-04-03T06:01:22;3.30;1.00
6662;DHT22;3367;48.714;8.994;2023-04-03T06:03:49;3.50;1.00
6662;DHT22;3367;48.714;8.994;2023-04-03T06:06:16;3.70;1.00
6662;DHT22;3367;48.714;8.994;2023-04-03T06:08:44;3.70;1.00
6662;DHT22;3367;48.714;8.994;2023-04-03T06:11:11;3.60;1.00
6662;DHT22;3367;48.714;8.994;2023-04-03T06:13:38;3.50;1.00
6662;DHT22;3367;48.714;8.994;2023-04-03T06:16:05;3.60;1.00
6662;DHT22;3367;48.714;8.994;2023-04-03T06:18:32;4.00;1.00
6662;DHT22;3367;48.714;8.994;2023-04-03T06:20:58;4.40;1.00
6662;DHT22;3367;48.714;8.994;2023-04-03T06:23:26;4.50;1.00
6662;DHT22;3367;48.714;8.994;2023-04-03T06:25:54;4.00;1.00
6662;DHT22;3367;48.714;8.994;2023-04-03T06:28:21;3.70;1.00
6662;DHT22;3367;48.714;8.994;2023-04-03T06:30:47;3.40;1.00
6662;DHT22;3367;48.714;8.994;2023-04-03T06:33:14;3.20;1.00
6662;DHT22;3367;48.714;8.994;2023-04-03T06:35:41;3.20;1.00
6662;DHT22;3367;48.714;8.994;2023-04-03T06:38:07;3.30;1.00
6662;DHT22;3367;48.714;8.994;2023-04-03T06:40:35;3.40;1.00
6662;DHT22;3367;48.714;8.994;2023-04-03T06:43:04;3.50;1.00
6662;DHT22;3367;48.714;8.994;2023-04-03T06:45:31;3.80;1.00
6662;DHT22;3367;48.714;8.994;2023-04-03T06:47:57;3.90;1.00
6662;DHT22;3367;48.714;8.994;2023-04-03T06:50:25;3.90;1.00
6662;DHT22;3367;48.714;8.994;2023-04-03T06:52:51;4.10;1.00
6662;DHT22;3367;48.714;8.994;2023-04-03T06:55:18;4.20;1.00
6662;DHT22;3367;48.714;8.994;2023-04-03T06:57:45;4.30;1.00
6662;DHT22;3367;48.714;8.994;2023-04-03T07:00:14;4.60;1.00
6662;DHT22;3367;48.714;8.994;2023-04-03T07:02:41;4.60;1.00
6662;DHT22;3367;48.714;8.994;2023-04-03T07:05:08;4.50;1.00
6662;DHT22;3367;48.714;8.994;2023-04-03T07:07:35;4.40;1.00
6662;DHT22;3367;48.714;8.994;2023-04-03T07:10:04;4.30;1.00
6662;DHT22;3367;48.714;8.994;2023-04-03T07:12:31;4.20;1.00
6662;DHT22;3367;48.714;8.994;2023-04-03T07:14:58;4.30;1.00
6662;DHT22;3367;48.714;8.994;2023-04-03T07:17:26;4.30;1.00
6662;DHT22;3367;48.714;8.994;2023-04-03T07:19:53;4.30;1.00
6662;DHT22;3367;48.714;8.994;2023-04-03T07:22:19;4.40;1.00
6662;DHT22;3367;48.714;8.994;2023-04-03T07:24:46;4.20;1.00
6662;DHT22;3367;48.714;8.994;2023-04-03T07:27:13;4.20;1.00
6662;DHT22;3367;48.714;8.994;2023-04-03T07:29:40;4.40;1.00
6662;DHT22;3367;48.714;8.994;2023-04-03T07:32:08;4.40;1.00
6662;DHT22;3367;48.714;8.994;2023-04-03T07:34:36;4.50;1.00
6662;DHT22;3367;48.714;8.994;2023-04-03T07:37:03;4.60;1.00
6662;DHT22;3367;48.714;8.994;2023-04-03T07:39:30;4.50;1.00
6662;DHT22;3367;48.714;8.994;2023-04-03T07:41:57;4.50;1.00
6662;DHT22;3367;48.714;8.994;2023-04-03T07:44:24;4.60;1.00
6662;DHT22;3367;48.714;8.994;2023-04-03T07:46:51;4.70;1.00
6662;DHT22;3367;48.714;8.994;2023-04-03T07:49:18;4.80;1.00
6662;DHT22;3367;48.714;8.994;2023-04-03T07:51:46;4.90;1.00
6662;DHT22;3367;48.714;8.994;2023-04-03T07:54:14;4.70;1.00
6662;DHT22;3367;48.714;8.994;2023-04-03T07:56:40;4.70;1.00
6662;DHT22;3367;48.714;8.994;2023-04-03T07:59:08;4.70;1.00
6662;DHT22;3367;48.714;8.994;2023-04-03T08:01:35;4.70;1.00
6662;DHT22;3367;48.714;8.994;2023-04-03T08:04:02;4.90;1.00
6662;DHT22;3367;48.714;8.994;2023-04-03T08:06:31;5.00;1.00
6662;DHT22;3367;48.714;8.994;2023-04-03T08:09:02;5.20;1.00
6662;DHT22;3367;48.714;8.994;2023-04-03T08:11:29;5.50;1.00
6662;DHT22;3367;48.714;8.994;2023-04-03T08:13:56;5.60;1.00
6662;DHT22;3367;48.714;8.994;2023-04-03T08:16:24;5.40;1.00
6662;DHT22;3367;48.714;8.994;2023-04-03T08:18:52;5.40;1.00
6662;DHT22;3367;48.714;8.994;2023-04-03T08:21:19;5.50;1.00
6662;DHT22;3367;48.714;8.994;2023-04-03T08:23:48;5.30;1.00
6662;DHT22;3367;48.714;8.994;2023-04-03T08:26:18;5.90;1.00
6662;DHT22;3367;48.714;8.994;2023-04-03T08:28:45;5.90;1.00
6662;DHT22;3367;48.714;8.994;2023-04-03T08:31:14;5.50;1.00
6662;DHT22;3367;48.714;8.994;2023-04-03T08:33:40;5.40;1.00
6662;DHT22;3367;48.714;8.994;2023-04-03T08:36:17;5.40;1.00
6662;DHT22;3367;48.714;8.994;2023-04-03T08:38:43;5.40;1.00
6662;DHT22;3367;48.714;8.994;2023-04-03T08:41:15;5.30;1.00
6662;DHT22;3367;48.714;8.994;2023-04-03T08:43:53;5.40;1.00
6662;DHT22;3367;48.714;8.994;2023-04-03T08:46:25;5.60;1.00
6662;DHT22;3367;48.714;8.994;2023-04-03T08:48:53;5.80;1.00
6662;DHT22;3367;48.714;8.994;2023-04-03T08:51:22;5.90;1.00
6662;DHT22;3367;48.714;8.994;2023-04-03T08:53:54;5.90;1.00
6662;DHT22;3367;48.714;8.994;2023-04-03T08:56:24;5.70;1.00
6662;DHT22;3367;48.714;8.994;2023-04-03T08:58:56;5.60;1.00
6662;DHT22;3367;48.714;8.994;2023-04-03T09:01:26;5.90;1.00
6662;DHT22;3367;48.714;8.994;2023-04-03T09:03:53;5.90;1.00
6662;DHT22;3367;48.714;8.994;2023-04-03T09:06:22;6.30;1.00
6662;DHT22;3367;48.714;8.994;2023-04-03T09:08:54;6.20;1.00
6662;DHT22;3367;48.714;8.994;2023-04-03T09:11:25;6.20;1.00
6662;DHT22;3367;48.714;8.994;2023-04-03T09:13:59;6.10;1.00
6662;DHT22;3367;48.714;8.994;2023-04-03T09:16:35;6.40;1.00
6662;DHT22;3367;48.714;8.994;2023-04-03T09:19:11;6.60;1.00
6662;DHT22;3367;48.714;8.994;2023-04-03T09:21:41;6.90;1.00
6662;DHT22;3367;48.714;8.994;2023-04-03T09:24:10;7.00;1.00
6662;DHT22;3367;48.714;8.994;2023-04-03T09:26:42;6.60;1.00
6662;DHT22;3367;48.714;8.994;2023-04-03T09:29:16;6.50;1.00
6662;DHT22;3367;48.714;8.994;2023-04-03T09:35:23;6.00;1.00
6662;DHT22;3367;48.714;8.994;2023-04-03T09:37:51;5.90;1.00
6662;DHT22;3367;48.714;8.994;2023-04-03T09:40:32;6.00;1.00
6662;DHT22;3367;48.714;8.994;2023-04-03T09:43:01;6.10;1.00
6662;DHT22;3367;48.714;8.994;2023-04-03T09:45:31;5.90;1.00
6662;DHT22;3367;48.714;8.994;2023-04-03T09:48:13;5.70;1.00
6662;DHT22;3367;48.714;8.994;2023-04-03T09:50:55;5.90;1.00
6662;DHT22;3367;48.714;8.994;2023-04-03T09:53:31;6.10;1.00
6662;DHT22;3367;48.714;8.994;2023-04-03T09:55:59;6.10;1.00
6662;DHT22;3367;48.714;8.994;2023-04-03T09:58:27;6.10;1.00
6662;DHT22;3367;48.714;8.994;2023-04-03T10:00:57;6.20;1.00
6662;DHT22;3367;48.714;8.994;2023-04-03T10:03:28;6.10;1.00
6662;DHT22;3367;48.714;8.994;2023-04-03T10:05:56;6.20;1.00
6662;DHT22;3367;48.714;8.994;2023-04-03T10:08:26;6.00;1.00
6662;DHT22;3367;48.714;8.994;2023-04-03T10:11:08;6.00;1.00
6662;DHT22;3367;48.714;8.994;2023-04-03T10:13:35;6.20;1.00
6662;DHT22;3367;48.714;8.994;2023-04-03T10:16:07;6.50;1.00
6662;DHT22;3367;48.714;8.994;2023-04-03T10:18:40;6.30;1.00
6662;DHT22;3367;48.714;8.994;2023-04-03T10:21:14;6.40;1.00
6662;DHT22;3367;48.714;8.994;2023-04-03T10:23:45;6.60;1.00
6662;DHT22;3367;48.714;8.994;2023-04-03T10:26:23;6.40;1.00
6662;DHT22;3367;48.714;8.994;2023-04-03T10:28:57;6.20;1.00
6662;DHT22;3367;48.714;8.994;2023-04-03T10:31:31;6.20;1.00
6662;DHT22;3367;48.714;8.994;2023-04-03T10:34:05;6.00;1.00
6662;DHT22;3367;48.714;8.994;2023-04-03T10:36:38;6.00;1.00
6662;DHT22;3367;48.714;8.994;2023-04-03T10:39:19;6.00;1.00
6662;DHT22;3367;48.714;8.994;2023-04-03T10:41:59;6.10;1.00
6662;DHT22;3367;48.714;8.994;2023-04-03T10:44:36;5.80;1.00
6662;DHT22;3367;48.714;8.994;2023-04-03T10:47:12;5.50;1.00
6662;DHT22;3367;48.714;8.994;2023-04-03T10:49:50;5.60;1.00
6662;DHT22;3367;48.714;8.994;2023-04-03T10:52:23;5.50;1.00
6662;DHT22;3367;48.714;8.994;2023-04-03T10:54:59;5.60;1.00
6662;DHT22;3367;48.714;8.994;2023-04-03T10:57:30;5.80;1.00
6662;DHT22;3367;48.714;8.994;2023-04-03T10:59:59;6.30;1.00
6662;DHT22;3367;48.714;8.994;2023-04-03T11:02:31;6.40;1.00
6662;DHT22;3367;48.714;8.994;2023-04-03T11:05:02;6.20;1.00
6662;DHT22;3367;48.714;8.994;2023-04-03T11:07:34;6.30;1.00
6662;DHT22;3367;48.714;8.994;2023-04-03T11:10:10;5.90;1.00
6662;DHT22;3367;48.714;8.994;2023-04-03T11:12:42;5.90;1.00
6662;DHT22;3367;48.714;8.994;2023-04-03T11:15:13;5.70;1.00
6662;DHT22;3367;48.714;8.994;2023-04-03T11:17:47;5.70;1.00
6662;DHT22;3367;48.714;8.994;2023-04-03T11:20:18;5.50;1.00
6662;DHT22;3367;48.714;8.994;2023-04-03T11:22:49;5.70;1.00
6662;DHT22;3367;48.714;8.994;2023-04-03T11:25:20;5.90;1.00
6662;DHT22;3367;48.714;8.994;2023-04-03T11:27:53;5.90;1.00
6662;DHT22;3367;48.714;8.994;2023-04-03T11:30:24;5.90;1.00
6662;DHT22;3367;48.714;8.994;2023-04-03T11:33:11;5.80;1.00
6662;DHT22;3367;48.714;8.994;2023-04-03T11:35:43;5.60;1.00
6662;DHT22;3367;48.714;8.994;2023-04-03T11:38:17;5.40;1.00
6662;DHT22;3367;48.714;8.994;2023-04-03T11:40:45;5.50;1.00
6662;DHT22;3367;48.714;8.994;2023-04-03T11:43:22;5.60;1.00
6662;DHT22;3367;48.714;8.994;2023-04-03T11:45:53;5.60;1.00
6662;DHT22;3367;48.714;8.994;2023-04-03T11:48:53;5.70;1.00
6662;DHT22;3367;48.714;8.994;2023-04-03T11:51:51;5.80;1.00
6662;DHT22;3367;48.714;8.994;2023-04-03T11:54:47;6.00;1.00
6662;DHT22;3367;48.714;8.994;2023-04-03T11:57:46;6.00;1.00
6662;DHT22;3367;48.714;8.994;2023-04-03T12:00:52;5.90;1.00
6662;DHT22;3367;48.714;8.994;2023-04-03T12:12:28;5.60;1.00
6662;DHT22;3367;48.714;8.994;2023-04-03T12:14:56;5.70;1.00
6662;DHT22;3367;48.714;8.994;2023-04-03T12:17:38;5.90;1.00
6662;DHT22;3367;48.714;8.994;2023-04-03T12:23:22;6.00;1.00
6662;DHT22;3367;48.714;8.994;2023-04-03T12:25:51;6.20;1.00
6662;DHT22;3367;48.714;8.994;2023-04-03T12:28:18;6.10;1.00
6662;DHT22;3367;48.714;8.994;2023-04-03T12:30:45;6.10;1.00
6662;DHT22;3367;48.714;8.994;2023-04-03T12:33:27;6.30;1.00
6662;DHT22;3367;48.714;8.994;2023-04-03T12:36:04;6.20;1.00
6662;DHT22;3367;48.714;8.994;2023-04-03T12:38:52;5.90;1.00
6662;DHT22;3367;48.714;8.994;2023-04-03T12:41:35;6.20;1.00
6662;DHT22;3367;48.714;8.994;2023-04-03T12:44:21;6.30;1.00
6662;DHT22;3367;48.714;8.994;2023-04-03T12:46:52;6.40;1.00
6662;DHT22;3367;48.714;8.994;2023-04-03T12:49:31;6.30;1.00
6662;DHT22;3367;48.714;8.994;2023-04-03T12:52:01;6.20;1.00
6662;DHT22;3367;48.714;8.994;2023-04-03T12:54:32;5.90;1.00
6662;DHT22;3367;48.714;8.994;2023-04-03T12:57:12;5.90;1.00
6662;DHT22;3367;48.714;8.994;2023-04-03T12:59:39;6.10;1.00
6662;DHT22;3367;48.714;8.994;2023-04-03T13:02:19;6.20;1.00
6662;DHT22;3367;48.714;8.994;2023-04-03T13:04:47;6.30;1.00
6662;DHT22;3367;48.714;8.994;2023-04-03T13:07:21;6.20;1.00
6662;DHT22;3367;48.714;8.994;2023-04-03T13:09:56;6.20;1.00
6662;DHT22;3367;48.714;8.994;2023-04-03T13:12:26;6.30;1.00
6662;DHT22;3367;48.714;8.994;2023-04-03T13:14:54;6.30;1.00
6662;DHT22;3367;48.714;8.994;2023-04-03T13:17:21;6.10;1.00
6662;DHT22;3367;48.714;8.994;2023-04-03T13:19:48;5.80;1.00
6662;DHT22;3367;48.714;8.994;2023-04-03T13:22:25;5.90;1.00
6662;DHT22;3367;48.714;8.994;2023-04-03T13:24:54;6.10;1.00
6662;DHT22;3367;48.714;8.994;2023-04-03T13:27:21;6.10;1.00
6662;DHT22;3367;48.714;8.994;2023-04-03T13:29:52;6.00;1.00
6662;DHT22;3367;48.714;8.994;2023-04-03T13:32:21;6.00;1.00
6662;DHT22;3367;48.714;8.994;2023-04-03T13:34:49;6.20;1.00
6662;DHT22;3367;48.714;8.994;2023-04-03T13:37:21;6.10;1.00
6662;DHT22;3367;48.714;8.994;2023-04-03T13:39:59;6.30;1.00
6662;DHT22;3367;48.714;8.994;2023-04-03T13:42:28;6.50;1.00
6662;DHT22;3367;48.714;8.994;2023-04-03T13:45:16;6.60;1.00
6662;DHT22;3367;48.714;8.994;2023-04-03T13:47:46;6.80;1.00
6662;DHT22;3367;48.714;8.994;2023-04-03T13:50:16;6.90;1.00
6662;DHT22;3367;48.714;8.994;2023-04-03T13:52:45;6.50;1.00
6662;DHT22;3367;48.714;8.994;2023-04-03T13:55:19;6.50;1.00
6662;DHT22;3367;48.714;8.994;2023-04-03T13:57:54;6.80;1.00
6662;DHT22;3367;48.714;8.994;2023-04-03T14:00:36;7.00;1.00
6662;DHT22;3367;48.714;8.994;2023-04-03T14:03:12;7.00;1.00
6662;DHT22;3367;48.714;8.994;2023-04-03T14:05:39;7.20;1.00
6662;DHT22;3367;48.714;8.994;2023-04-03T14:08:06;7.20;1.00
6662;DHT22;3367;48.714;8.994;2023-04-03T14:10:35;6.80;1.00
6662;DHT22;3367;48.714;8.994;2023-04-03T14:13:02;6.60;1.00
6662;DHT22;3367;48.714;8.994;2023-04-03T14:15:30;6.60;1.00
6662;DHT22;3367;48.714;8.994;2023-04-03T14:17:59;6.80;1.00
6662;DHT22;3367;48.714;8.994;2023-04-03T14:20:26;6.90;1.00
6662;DHT22;3367;48.714;8.994;2023-04-03T14:22:54;6.90;1.00
6662;DHT22;3367;48.714;8.994;2023-04-03T14:25:22;7.10;1.00
6662;DHT22;3367;48.714;8.994;2023-04-03T14:27:50;7.00;1.00
6662;DHT22;3367;48.714;8.994;2023-04-03T14:30:21;7.10;1.00
6662;DHT22;3367;48.714;8.994;2023-04-03T14:32:48;7.00;1.00
6662;DHT22;3367;48.714;8.994;2023-04-03T14:35:16;6.90;1.00
6662;DHT22;3367;48.714;8.994;2023-04-03T14:37:45;6.70;1.00
6662;DHT22;3367;48.714;8.994;2023-04-03T14:40:13;6.70;1.00
6662;DHT22;3367;48.714;8.994;2023-04-03T14:42:40;6.70;1.00
6662;DHT22;3367;48.714;8.994;2023-04-03T14:45:09;6.60;1.00
6662;DHT22;3367;48.714;8.994;2023-04-03T14:47:40;6.50;1.00
6662;DHT22;3367;48.714;8.994;2023-04-03T14:50:14;6.50;1.00
6662;DHT22;3367;48.714;8.994;2023-04-03T14:52:44;6.50;1.00
6662;DHT22;3367;48.714;8.994;2023-04-03T14:55:13;6.40;1.00
6662;DHT22;3367;48.714;8.994;2023-04-03T14:57:40;6.40;1.00
6662;DHT22;3367;48.714;8.994;2023-04-03T15:00:12;6.30;1.00
6662;DHT22;3367;48.714;8.994;2023-04-03T15:02:39;6.20;1.00
6662;DHT22;3367;48.714;8.994;2023-04-03T15:05:09;6.10;1.00
6662;DHT22;3367;48.714;8.994;2023-04-03T15:07:38;6.00;1.00
6662;DHT22;3367;48.714;8.994;2023-04-03T15:10:17;6.00;1.00
6662;DHT22;3367;48.714;8.994;2023-04-03T15:12:45;6.10;1.00
6662;DHT22;3367;48.714;8.994;2023-04-03T15:15:13;6.10;1.00
6662;DHT22;3367;48.714;8.994;2023-04-03T15:17:40;6.10;1.00
6662;DHT22;3367;48.714;8.994;2023-04-03T15:20:12;6.20;1.00
6662;DHT22;3367;48.714;8.994;2023-04-03T15:22:39;6.60;1.00
6662;DHT22;3367;48.714;8.994;2023-04-03T15:25:08;6.80;1.00
6662;DHT22;3367;48.714;8.994;2023-04-03T15:27:35;7.10;1.00
6662;DHT22;3367;48.714;8.994;2023-04-03T15:30:03;6.90;1.00
6662;DHT22;3367;48.714;8.994;2023-04-03T15:32:29;6.70;1.00
6662;DHT22;3367;48.714;8.994;2023-04-03T15:34:56;6.50;1.00
6662;DHT22;3367;48.714;8.994;2023-04-03T15:37:23;6.40;1.00
6662;DHT22;3367;48.714;8.994;2023-04-03T15:39:50;6.60;1.00
6662;DHT22;3367;48.714;8.994;2023-04-03T15:42:18;6.60;1.00
6662;DHT22;3367;48.714;8.994;2023-04-03T15:44:45;6.50;1.00
6662;DHT22;3367;48.714;8.994;2023-04-03T15:47:11;6.40;1.00
6662;DHT22;3367;48.714;8.994;2023-04-03T15:49:38;6.50;1.00
6662;DHT22;3367;48.714;8.994;2023-04-03T15:52:06;6.40;1.00
6662;DHT22;3367;48.714;8.994;2023-04-03T15:54:32;6.30;1.00
6662;DHT22;3367;48.714;8.994;2023-04-03T15:56:59;6.30;1.00
6662;DHT22;3367;48.714;8.994;2023-04-03T15:59:27;6.40;1.00
6662;DHT22;3367;48.714;8.994;2023-04-03T16:01:54;6.60;1.00
6662;DHT22;3367;48.714;8.994;2023-04-03T16:04:21;6.80;1.00
6662;DHT22;3367;48.714;8.994;2023-04-03T16:06:48;6.60;1.00
6662;DHT22;3367;48.714;8.994;2023-04-03T16:09:15;6.50;1.00
6662;DHT22;3367;48.714;8.994;2023-04-03T16:11:42;6.30;1.00
6662;DHT22;3367;48.714;8.994;2023-04-03T16:14:10;6.10;1.00
6662;DHT22;3367;48.714;8.994;2023-04-03T16:16:38;6.00;1.00
6662;DHT22;3367;48.714;8.994;2023-04-03T16:19:05;5.90;1.00
6662;DHT22;3367;48.714;8.994;2023-04-03T16:21:33;5.90;1.00
6662;DHT22;3367;48.714;8.994;2023-04-03T16:24:01;5.80;1.00
6662;DHT22;3367;48.714;8.994;2023-04-03T16:26:27;5.60;1.00
6662;DHT22;3367;48.714;8.994;2023-04-03T16:28:54;5.50;1.00
6662;DHT22;3367;48.714;8.994;2023-04-03T16:31:31;5.60;1.00
6662;DHT22;3367;48.714;8.994;2023-04-03T16:34:00;5.70;1.00
6662;DHT22;3367;48.714;8.994;2023-04-03T16:36:26;5.90;1.00
6662;DHT22;3367;48.714;8.994;2023-04-03T16:38:53;6.10;1.00
6662;DHT22;3367;48.714;8.994;2023-04-03T16:41:20;6.40;1.00
6662;DHT22;3367;48.714;8.994;2023-04-03T16:43:47;6.50;1.00
6662;DHT22;3367;48.714;8.994;2023-04-03T16:46:13;6.40;1.00
6662;DHT22;3367;48.714;8.994;2023-04-03T16:48:41;6.10;1.00
6662;DHT22;3367;48.714;8.994;2023-04-03T16:51:08;5.90;1.00
6662;DHT22;3367;48.714;8.994;2023-04-03T16:53:35;5.90;1.00
6662;DHT22;3367;48.714;8.994;2023-04-03T16:56:02;5.80;1.00
6662;DHT22;3367;48.714;8.994;2023-04-03T16:58:28;5.60;1.00
6662;DHT22;3367;48.714;8.994;2023-04-03T17:00:55;5.60;1.00
6662;DHT22;3367;48.714;8.994;2023-04-03T17:03:22;5.50;1.00
6662;DHT22;3367;48.714;8.994;2023-04-03T17:05:52;5.40;1.00